APG326 RPUW-RPVM
Flight info
| Callsign | APG326 |
|---|---|
| Flight time | 0h 44m |
| Altitude | 23000 |
| Route | MINOR B473 ROX W6A PARAO PARAO1 |
| Aircraft | A320/M-SDE3FGHIRWY/LB1 |
Departure
| Time | 2026-04-28 20:17 |
|---|---|
| Airport | Marinduque Airport (RPUW) |
Arrival
| Time | 2026-04-28 21:01 |
|---|---|
| Airport | Mactan Cebu International Airport (RPVM) |
| Time | Latitude | Longitude | Altitude | Speed | Heading |
|---|---|---|---|---|---|
| 2026-04-28 20:12 | 13.35856 | 121.82749 | 40 ft | 0 kts | 89° |
| 2026-04-28 20:13 | 13.35854 | 121.82750 | 40 ft | 0 kts | 107° |
| 2026-04-28 20:13 | 13.35850 | 121.82750 | 40 ft | 1 kts | 150° |
| 2026-04-28 20:14 | 13.35844 | 121.82746 | 38 ft | 3 kts | 201° |
| 2026-04-28 20:14 | 13.35811 | 121.82712 | 37 ft | 8 kts | 246° |
| 2026-04-28 20:14 | 13.35781 | 121.82670 | 38 ft | 8 kts | 195° |
| 2026-04-28 20:14 | 13.35710 | 121.82690 | 38 ft | 11 kts | 160° |
| 2026-04-28 20:15 | 13.35643 | 121.82716 | 37 ft | 10 kts | 160° |
| 2026-04-28 20:15 | 13.35563 | 121.82743 | 35 ft | 11 kts | 165° |
| 2026-04-28 20:15 | 13.35507 | 121.82769 | 34 ft | 7 kts | 157° |
| 2026-04-28 20:15 | 13.35509 | 121.82759 | 34 ft | 4 kts | 337° |
| 2026-04-28 20:16 | 13.35523 | 121.82754 | 34 ft | 0 kts | 341° |
| 2026-04-28 20:16 | 13.35611 | 121.82723 | 36 ft | 50 kts | 341° |
| 2026-04-28 20:16 | 13.36199 | 121.82523 | 42 ft | 124 kts | 342° |
| 2026-04-28 20:17 | 13.37183 | 121.82189 | 265 ft | 159 kts | 342° |
| 2026-04-28 20:17 | 13.38256 | 121.81842 | 980 ft | 162 kts | 343° |
| 2026-04-28 20:17 | 13.39317 | 121.81487 | 1664 ft | 164 kts | 347° |
| 2026-04-28 20:17 | 13.40473 | 121.81557 | 1988 ft | 181 kts | 29° |
| 2026-04-28 20:18 | 13.41386 | 121.82498 | 2289 ft | 200 kts | 68° |
| 2026-04-28 20:18 | 13.41576 | 121.83454 | 2543 ft | 214 kts | 95° |
| 2026-04-28 20:18 | 13.40534 | 121.85299 | 3094 ft | 249 kts | 143° |
| 2026-04-28 20:18 | 13.38949 | 121.86153 | 3805 ft | 262 kts | 156° |
| 2026-04-28 20:19 | 13.37227 | 121.86767 | 4686 ft | 268 kts | 161° |
| 2026-04-28 20:19 | 13.35425 | 121.87327 | 5540 ft | 273 kts | 161° |
| 2026-04-28 20:19 | 13.33595 | 121.87899 | 6429 ft | 277 kts | 161° |
| 2026-04-28 20:19 | 13.31740 | 121.88505 | 7245 ft | 281 kts | 160° |
| 2026-04-28 20:20 | 13.29873 | 121.89144 | 8075 ft | 285 kts | 159° |
| 2026-04-28 20:20 | 13.27987 | 121.89814 | 8903 ft | 288 kts | 159° |
| 2026-04-28 20:20 | 13.26081 | 121.90510 | 9749 ft | 292 kts | 158° |
| 2026-04-28 20:20 | 13.24144 | 121.91226 | 10296 ft | 305 kts | 158° |
| 2026-04-28 20:21 | 13.22074 | 121.91997 | 10527 ft | 328 kts | 158° |
| 2026-04-28 20:21 | 13.19874 | 121.92815 | 10749 ft | 349 kts | 158° |
| 2026-04-28 20:21 | 13.17545 | 121.93679 | 11268 ft | 358 kts | 158° |
| 2026-04-28 20:21 | 13.15178 | 121.94556 | 11915 ft | 363 kts | 158° |
| 2026-04-28 20:22 | 13.12821 | 121.95429 | 12574 ft | 367 kts | 158° |
| 2026-04-28 20:22 | 13.10405 | 121.96322 | 13223 ft | 371 kts | 158° |
| 2026-04-28 20:22 | 13.07959 | 121.97225 | 13862 ft | 375 kts | 158° |
| 2026-04-28 20:22 | 13.05491 | 121.98135 | 14418 ft | 378 kts | 158° |
| 2026-04-28 20:23 | 13.03004 | 121.99054 | 14985 ft | 381 kts | 158° |
| 2026-04-28 20:23 | 13.00497 | 121.99982 | 15549 ft | 384 kts | 158° |
| 2026-04-28 20:23 | 12.97964 | 122.00918 | 16109 ft | 387 kts | 158° |
| 2026-04-28 20:23 | 12.95414 | 122.01860 | 16659 ft | 391 kts | 158° |
| 2026-04-28 20:24 | 12.92846 | 122.02808 | 17204 ft | 394 kts | 158° |
| 2026-04-28 20:24 | 12.90284 | 122.03754 | 17743 ft | 397 kts | 158° |
| 2026-04-28 20:24 | 12.87671 | 122.04719 | 18278 ft | 401 kts | 159° |
| 2026-04-28 20:24 | 12.85026 | 122.05694 | 18736 ft | 404 kts | 159° |
| 2026-04-28 20:25 | 12.82370 | 122.06674 | 19198 ft | 407 kts | 159° |
| 2026-04-28 20:25 | 12.79691 | 122.07662 | 19669 ft | 410 kts | 159° |
| 2026-04-28 20:25 | 12.76994 | 122.08658 | 20122 ft | 414 kts | 159° |
| 2026-04-28 20:25 | 12.74268 | 122.09664 | 20561 ft | 417 kts | 159° |
| 2026-04-28 20:26 | 12.71562 | 122.10660 | 20992 ft | 420 kts | 159° |
| 2026-04-28 20:26 | 12.68801 | 122.11678 | 21426 ft | 423 kts | 159° |
| 2026-04-28 20:26 | 12.66011 | 122.12706 | 21850 ft | 426 kts | 160° |
| 2026-04-28 20:26 | 12.63208 | 122.13736 | 22256 ft | 429 kts | 160° |
| 2026-04-28 20:27 | 12.60384 | 122.14775 | 22669 ft | 432 kts | 160° |
| 2026-04-28 20:27 | 12.57540 | 122.15824 | 23059 ft | 435 kts | 160° |
| 2026-04-28 20:27 | 12.54680 | 122.16880 | 23449 ft | 438 kts | 160° |
| 2026-04-28 20:27 | 12.51807 | 122.17940 | 23770 ft | 440 kts | 160° |
| 2026-04-28 20:28 | 12.48952 | 122.18989 | 24084 ft | 442 kts | 160° |
| 2026-04-28 20:28 | 12.46051 | 122.20056 | 24403 ft | 444 kts | 160° |
| 2026-04-28 20:28 | 12.43120 | 122.21133 | 24723 ft | 446 kts | 160° |
| 2026-04-28 20:28 | 12.40195 | 122.22206 | 24872 ft | 447 kts | 160° |
| 2026-04-28 20:29 | 12.37282 | 122.23375 | 24917 ft | 454 kts | 154° |
| 2026-04-28 20:29 | 12.34536 | 122.24984 | 24920 ft | 457 kts | 146° |
| 2026-04-28 20:29 | 12.31884 | 122.26791 | 24919 ft | 458 kts | 146° |
| 2026-04-28 20:29 | 12.29236 | 122.28591 | 24916 ft | 458 kts | 146° |
| 2026-04-28 20:30 | 12.26577 | 122.30397 | 24915 ft | 458 kts | 146° |
| 2026-04-28 20:30 | 12.23955 | 122.32171 | 24919 ft | 458 kts | 146° |
| 2026-04-28 20:30 | 12.21293 | 122.33969 | 24920 ft | 458 kts | 146° |
| 2026-04-28 20:30 | 12.18629 | 122.35765 | 24917 ft | 458 kts | 146° |
| 2026-04-28 20:31 | 12.15964 | 122.37562 | 24918 ft | 458 kts | 146° |
| 2026-04-28 20:31 | 12.13296 | 122.39360 | 24917 ft | 458 kts | 146° |
| 2026-04-28 20:31 | 12.10632 | 122.41161 | 24914 ft | 458 kts | 146° |
| 2026-04-28 20:31 | 12.08006 | 122.42938 | 24909 ft | 458 kts | 146° |
| 2026-04-28 20:32 | 12.05346 | 122.44734 | 24909 ft | 458 kts | 146° |
| 2026-04-28 20:32 | 12.02682 | 122.46535 | 24908 ft | 458 kts | 146° |
| 2026-04-28 20:32 | 12.00024 | 122.48330 | 24905 ft | 458 kts | 146° |
| 2026-04-28 20:32 | 11.97394 | 122.50107 | 24905 ft | 458 kts | 146° |
| 2026-04-28 20:33 | 11.94730 | 122.51907 | 24905 ft | 458 kts | 146° |
| 2026-04-28 20:33 | 11.92064 | 122.53708 | 24907 ft | 459 kts | 146° |
| 2026-04-28 20:33 | 11.89396 | 122.55506 | 24909 ft | 459 kts | 146° |
| 2026-04-28 20:33 | 11.86754 | 122.57288 | 24912 ft | 459 kts | 146° |
| 2026-04-28 20:34 | 11.84086 | 122.59087 | 24913 ft | 459 kts | 146° |
| 2026-04-28 20:34 | 11.81418 | 122.60887 | 24912 ft | 459 kts | 146° |
| 2026-04-28 20:34 | 11.78749 | 122.62687 | 24916 ft | 459 kts | 146° |
| 2026-04-28 20:34 | 11.76067 | 122.64493 | 24913 ft | 459 kts | 146° |
| 2026-04-28 20:35 | 11.73396 | 122.66290 | 24915 ft | 459 kts | 146° |
| 2026-04-28 20:35 | 11.70726 | 122.68086 | 24913 ft | 459 kts | 146° |
| 2026-04-28 20:35 | 11.68089 | 122.69859 | 24915 ft | 459 kts | 146° |
| 2026-04-28 20:35 | 11.65416 | 122.71657 | 24914 ft | 459 kts | 146° |
| 2026-04-28 20:36 | 11.62749 | 122.73453 | 24916 ft | 459 kts | 146° |
| 2026-04-28 20:36 | 11.60099 | 122.75288 | 24916 ft | 459 kts | 142° |
| 2026-04-28 20:36 | 11.57693 | 122.77436 | 24917 ft | 458 kts | 136° |
| 2026-04-28 20:36 | 11.55405 | 122.79656 | 24913 ft | 458 kts | 136° |
| 2026-04-28 20:37 | 11.53082 | 122.81906 | 24912 ft | 459 kts | 136° |
| 2026-04-28 20:37 | 11.50762 | 122.84146 | 24911 ft | 459 kts | 136° |
| 2026-04-28 20:37 | 11.48445 | 122.86379 | 24911 ft | 458 kts | 136° |
| 2026-04-28 20:37 | 11.46154 | 122.88589 | 24909 ft | 458 kts | 136° |
| 2026-04-28 20:38 | 11.43836 | 122.90826 | 24908 ft | 458 kts | 136° |
| 2026-04-28 20:38 | 11.41517 | 122.93063 | 24908 ft | 458 kts | 136° |
| 2026-04-28 20:38 | 11.39202 | 122.95299 | 24908 ft | 459 kts | 136° |
| 2026-04-28 20:38 | 11.37666 | 122.96782 | 24906 ft | 459 kts | 136° |
| 2026-04-28 20:39 | 11.34582 | 122.99760 | 24908 ft | 459 kts | 136° |
| 2026-04-28 20:39 | 11.33013 | 123.01271 | 24906 ft | 459 kts | 136° |
| 2026-04-28 20:39 | 11.30689 | 123.03510 | 24905 ft | 459 kts | 136° |
| 2026-04-28 20:39 | 11.28386 | 123.05729 | 24908 ft | 459 kts | 136° |
| 2026-04-28 20:40 | 11.26059 | 123.07973 | 24908 ft | 459 kts | 136° |
| 2026-04-28 20:40 | 11.23771 | 123.10181 | 24909 ft | 458 kts | 136° |
| 2026-04-28 20:40 | 11.21447 | 123.12423 | 24911 ft | 458 kts | 136° |
| 2026-04-28 20:40 | 11.19129 | 123.14660 | 24901 ft | 458 kts | 136° |
| 2026-04-28 20:41 | 11.16812 | 123.16891 | 24907 ft | 458 kts | 136° |
| 2026-04-28 20:41 | 11.14490 | 123.19124 | 24901 ft | 458 kts | 136° |
| 2026-04-28 20:41 | 11.12198 | 123.21331 | 24897 ft | 458 kts | 136° |
| 2026-04-28 20:41 | 11.09871 | 123.23568 | 24902 ft | 458 kts | 136° |
| 2026-04-28 20:42 | 11.07545 | 123.25805 | 24899 ft | 458 kts | 136° |
| 2026-04-28 20:42 | 11.05251 | 123.28012 | 24901 ft | 458 kts | 136° |
| 2026-04-28 20:42 | 11.02923 | 123.30250 | 24905 ft | 458 kts | 136° |
| 2026-04-28 20:42 | 11.00597 | 123.32484 | 24906 ft | 458 kts | 136° |
| 2026-04-28 20:43 | 10.98305 | 123.34687 | 24904 ft | 458 kts | 136° |
| 2026-04-28 20:43 | 10.95982 | 123.36919 | 24906 ft | 458 kts | 136° |
| 2026-04-28 20:43 | 10.93667 | 123.39144 | 24497 ft | 456 kts | 136° |
| 2026-04-28 20:43 | 10.91341 | 123.41380 | 23502 ft | 461 kts | 136° |
| 2026-04-28 20:44 | 10.89014 | 123.43616 | 22669 ft | 458 kts | 136° |
| 2026-04-28 20:44 | 10.86709 | 123.45827 | 21972 ft | 452 kts | 136° |
| 2026-04-28 20:44 | 10.84457 | 123.47988 | 21298 ft | 447 kts | 135° |
| 2026-04-28 20:44 | 10.82206 | 123.50150 | 20625 ft | 442 kts | 135° |
| 2026-04-28 20:45 | 10.79978 | 123.52291 | 19990 ft | 436 kts | 135° |
| 2026-04-28 20:45 | 10.77779 | 123.54405 | 19388 ft | 431 kts | 135° |
| 2026-04-28 20:45 | 10.75637 | 123.56459 | 18812 ft | 426 kts | 135° |
| 2026-04-28 20:45 | 10.73488 | 123.58514 | 18258 ft | 420 kts | 135° |
| 2026-04-28 20:46 | 10.71355 | 123.60554 | 17656 ft | 415 kts | 135° |
| 2026-04-28 20:46 | 10.69272 | 123.62549 | 17123 ft | 409 kts | 135° |
| 2026-04-28 20:46 | 10.67212 | 123.64523 | 16623 ft | 403 kts | 135° |
| 2026-04-28 20:46 | 10.65211 | 123.66441 | 16135 ft | 397 kts | 135° |
| 2026-04-28 20:47 | 10.63207 | 123.68361 | 15578 ft | 394 kts | 135° |
| 2026-04-28 20:47 | 10.61206 | 123.70279 | 15023 ft | 391 kts | 135° |
| 2026-04-28 20:47 | 10.59247 | 123.72158 | 14444 ft | 389 kts | 135° |
| 2026-04-28 20:47 | 10.57284 | 123.74044 | 13855 ft | 387 kts | 135° |
| 2026-04-28 20:48 | 10.55324 | 123.75921 | 13205 ft | 386 kts | 135° |
| 2026-04-28 20:48 | 10.53372 | 123.77786 | 12586 ft | 382 kts | 135° |
| 2026-04-28 20:48 | 10.51463 | 123.79608 | 11973 ft | 379 kts | 135° |
| 2026-04-28 20:48 | 10.49539 | 123.81447 | 11333 ft | 377 kts | 135° |
| 2026-04-28 20:49 | 10.47632 | 123.83269 | 10826 ft | 371 kts | 135° |
| 2026-04-28 20:49 | 10.45813 | 123.85008 | 10709 ft | 354 kts | 135° |
| 2026-04-28 20:49 | 10.44050 | 123.86688 | 10588 ft | 339 kts | 135° |
| 2026-04-28 20:49 | 10.42357 | 123.88299 | 10468 ft | 325 kts | 135° |
| 2026-04-28 20:50 | 10.40752 | 123.89831 | 10357 ft | 313 kts | 135° |
| 2026-04-28 20:50 | 10.39194 | 123.91323 | 10237 ft | 302 kts | 135° |
| 2026-04-28 20:50 | 10.37685 | 123.92768 | 10058 ft | 295 kts | 134° |
| 2026-04-28 20:50 | 10.36195 | 123.94196 | 9817 ft | 294 kts | 134° |
| 2026-04-28 20:51 | 10.34706 | 123.95619 | 9360 ft | 296 kts | 135° |
| 2026-04-28 20:51 | 10.33088 | 123.96851 | 8773 ft | 292 kts | 155° |
| 2026-04-28 20:51 | 10.31106 | 123.97212 | 8092 ft | 293 kts | 184° |
| 2026-04-28 20:51 | 10.29191 | 123.96520 | 7480 ft | 292 kts | 215° |
| 2026-04-28 20:52 | 10.27700 | 123.95120 | 6934 ft | 294 kts | 224° |
| 2026-04-28 20:52 | 10.26248 | 123.93633 | 6496 ft | 295 kts | 225° |
| 2026-04-28 20:52 | 10.24840 | 123.92186 | 5972 ft | 291 kts | 224° |
| 2026-04-28 20:52 | 10.23415 | 123.90725 | 5329 ft | 290 kts | 224° |
| 2026-04-28 20:53 | 10.20618 | 123.87868 | 4192 ft | 280 kts | 224° |
| 2026-04-28 20:53 | 10.19260 | 123.86484 | 3681 ft | 279 kts | 224° |
| 2026-04-28 20:53 | 10.17892 | 123.85088 | 3172 ft | 277 kts | 224° |
| 2026-04-28 20:54 | 10.16590 | 123.83758 | 3061 ft | 253 kts | 224° |
| 2026-04-28 20:54 | 10.15405 | 123.82546 | 2965 ft | 232 kts | 223° |
| 2026-04-28 20:54 | 10.14418 | 123.81337 | 2857 ft | 218 kts | 248° |
| 2026-04-28 20:54 | 10.14336 | 123.79871 | 2813 ft | 209 kts | 294° |
| 2026-04-28 20:55 | 10.15228 | 123.78852 | 2807 ft | 182 kts | 343° |
| 2026-04-28 20:55 | 10.16341 | 123.78895 | 2752 ft | 153 kts | 37° |
| 2026-04-28 20:55 | 10.16820 | 123.79743 | 2728 ft | 139 kts | 80° |
| 2026-04-28 20:55 | 10.16978 | 123.80694 | 2695 ft | 137 kts | 80° |
| 2026-04-28 20:56 | 10.17137 | 123.81644 | 2672 ft | 136 kts | 79° |
| 2026-04-28 20:56 | 10.17295 | 123.82589 | 2636 ft | 136 kts | 79° |
| 2026-04-28 20:56 | 10.17452 | 123.83534 | 2614 ft | 136 kts | 80° |
| 2026-04-28 20:56 | 10.17628 | 123.84476 | 2576 ft | 136 kts | 71° |
| 2026-04-28 20:57 | 10.18125 | 123.85268 | 2547 ft | 137 kts | 40° |
| 2026-04-28 20:57 | 10.18863 | 123.85884 | 2518 ft | 137 kts | 46° |
| 2026-04-28 20:57 | 10.19539 | 123.86571 | 2487 ft | 137 kts | 47° |
| 2026-04-28 20:57 | 10.20208 | 123.87266 | 2457 ft | 137 kts | 47° |
| 2026-04-28 20:58 | 10.20878 | 123.87956 | 2415 ft | 137 kts | 47° |
| 2026-04-28 20:58 | 10.21553 | 123.88649 | 2293 ft | 139 kts | 47° |
| 2026-04-28 20:58 | 10.22225 | 123.89334 | 2114 ft | 136 kts | 46° |
| 2026-04-28 20:58 | 10.22883 | 123.90003 | 1924 ft | 135 kts | 46° |
| 2026-04-28 20:59 | 10.23546 | 123.90678 | 1745 ft | 135 kts | 46° |
| 2026-04-28 20:59 | 10.24211 | 123.91352 | 1559 ft | 134 kts | 46° |
| 2026-04-28 20:59 | 10.24878 | 123.92025 | 1379 ft | 136 kts | 46° |
| 2026-04-28 20:59 | 10.25540 | 123.92692 | 1202 ft | 135 kts | 45° |
| 2026-04-28 21:00 | 10.26206 | 123.93362 | 1021 ft | 135 kts | 45° |
| 2026-04-28 21:00 | 10.26872 | 123.94035 | 844 ft | 136 kts | 45° |
| 2026-04-28 21:00 | 10.27542 | 123.94712 | 662 ft | 136 kts | 45° |
| 2026-04-28 21:00 | 10.28222 | 123.95396 | 476 ft | 138 kts | 45° |
| 2026-04-28 21:01 | 10.28907 | 123.96086 | 288 ft | 139 kts | 46° |
| 2026-04-28 21:01 | 10.29586 | 123.96772 | 103 ft | 140 kts | 46° |
| 2026-04-28 21:01 | 10.30236 | 123.97432 | 36 ft | 108 kts | 44° |
| 2026-04-28 21:01 | 10.30558 | 123.97751 | 36 ft | 29 kts | 44° |
| 2026-04-28 21:02 | 10.30707 | 123.97898 | 35 ft | 30 kts | 44° |
| 2026-04-28 21:02 | 10.30861 | 123.98049 | 34 ft | 31 kts | 44° |
| 2026-04-28 21:02 | 10.31016 | 123.98208 | 37 ft | 32 kts | 45° |
| 2026-04-28 21:02 | 10.31192 | 123.98317 | 39 ft | 17 kts | 21° |
| 2026-04-28 21:03 | 10.31304 | 123.98354 | 39 ft | 17 kts | 9° |
| 2026-04-28 21:03 | 10.31403 | 123.98309 | 39 ft | 16 kts | 314° |
| 2026-04-28 21:03 | 10.31446 | 123.98261 | 40 ft | 8 kts | 300° |
| 2026-04-28 21:03 | 10.31427 | 123.98210 | 40 ft | 12 kts | 227° |
| 2026-04-28 21:04 | 10.31357 | 123.98142 | 39 ft | 15 kts | 223° |
| 2026-04-28 21:04 | 10.31278 | 123.98064 | 37 ft | 17 kts | 225° |
| 2026-04-28 21:04 | 10.31245 | 123.97975 | 38 ft | 14 kts | 300° |
| 2026-04-28 21:04 | 10.31308 | 123.97913 | 39 ft | 11 kts | 316° |
| 2026-04-28 21:05 | 10.31309 | 123.97848 | 36 ft | 9 kts | 258° |
| 2026-04-28 21:05 | 10.31302 | 123.97790 | 39 ft | 8 kts | 263° |
| 2026-04-28 21:05 | 10.31298 | 123.97761 | 37 ft | 0 kts | 263° |